Hi Hat, KY (41636)

8:32 AM EDT on April 18, 2015 (GMT -0400)
Sookeys Creek | | Change Station
CLOSE
Current Station
Personal Weather Station
Location: Kentucky, KY
Elevation: 850 ft
Nearby Weather Stations
Active Advisory: Special Statement

Elev 850 ft 37.40 °N, 82.54 °W | Updated 7 seconds ago

Clear
Clear
54.9 °F
Feels Like 54.9 °F
N
0.0
Wind Variable Wind from North
Gusts 0.0 mph

Today
High -- | Low -- °F
--% Chance of Precip.
Yesterday
High -- | Low -- °F
Precip. -- in
6:52 AM 8:08 PM
Waning Crescent, 0% visible
Pressure 30.05 in
Visibility 10.0 miles
Clouds Clear
Dew Point 54 °F
Humidity 97%
Rainfall 0.00 in
Snow Depth Not available.
UV 1 out of 12
Pollen 9.90 out of 12
Air Quality Not available.
Flu Activity Local Activity
METAR KSJS 181215Z AUTO 00000KT 10SM CLR 15/13 A3005 RMK AO2 T01510129

More Conditions Fewer Conditions

Pressure 30.05 in
Visibility 10.0 miles
Clouds Clear
Dew Point 54 °F
Humidity 97%
Rainfall 0.00 in
Snow Depth Not available.
UV 1 out of 12
Pollen 9.90 out of 12
Air Quality Not available.
Flu Activity Local Activity
METAR KSJS 181215Z AUTO 00000KT 10SM CLR 15/13 A3005 RMK AO2 T01510129

More Conditions Fewer Conditions

10-Day Weather Forecast

Almanac

Astronomy

Apr. 18, 2015 Rise Set
Actual Time
Civil Twilight
Nautical Twilight
Astronomical Twilight
Moon
Length of Visible Light
Length of Day
Tomorrow will be .
, % of the Moon is Illuminated

Today's Extremes

State Highs State Lows

Community

WunderPhotos

Upload Photos

1,814,376 photos uploaded!

WunderBlogs® & News

Nearby

Air Quality

  Air Quality AQ Index Pollutant
Not available.

Snow Depth

Station Depth Elevation

Earthquake Activity

City Distance Mag. Time & Date
Minimum magnitude displayed is 2.5.

Coastal Water Temperatures

Place Temperature

Stations

Nearby Weather Stations

Station Location Temp. Windchill Dew Point Humidity Wind Precip. Elev Updated Type
                   
Special Statement
Statement as of 6:37 AM EDT on April 18, 2015

... Areas of dense fog early this morning...

Areas of dense fog have developed across the region. The fog is
most prevalent near the larger creeks... rivers and lakes. The fog
in these areas is reducing visibilities to one quarter of a mile
or less. However... the fog will begin to lift after sunrise... and
should dissipate by 9 am EDT.

If traveling early this morning... be alert for sudden changes in
visibilities. Slow down... use low beam headlights... leave plenty
of room between your vehicle and the one in front of you... and
allow extra time to reach your destination.


Jp